Terminal Aerodrome Forecast
Issued by NWS Sterling, VA

Current Version | Previous Version | Graphics & Text | Print | Product List | Glossary On
Versions: 1 2 3 4 5 6 7 8 9 10 11 12 13 14 15 16 17 18
000
FTUS41 KLWX 210537
TAFMRB
TAF
KMRB 210537Z 2106/2206 VRB03KT P6SM BKN050
     FM211500 18004KT P6SM VCTS BKN090CB
     FM211800 19005KT 5SM -SHRA BKN050
     FM212100 18006KT P6SM BKN070
     FM220500 00000KT P6SM SCT070=

USA.gov is the U.S. government's official web portal to all federal, state and local government web resources and services.